createdAt,value
2019-03-28T03:00:43.752Z,14.70
2019-03-28T03:03:12.890Z,14.80
2019-03-28T03:05:42.015Z,14.00
2019-03-28T03:08:11.188Z,15.20
2019-03-28T03:10:40.368Z,15.03
2019-03-28T03:13:09.527Z,13.70
2019-03-28T03:15:38.655Z,15.43
2019-03-28T03:18:08.090Z,13.80
2019-03-28T03:20:37.307Z,14.57
2019-03-28T03:23:06.441Z,14.70
2019-03-28T03:25:35.588Z,13.60
2019-03-28T03:28:04.742Z,13.73
2019-03-28T03:30:33.885Z,13.60
2019-03-28T03:33:03.088Z,13.70
2019-03-28T03:35:32.260Z,14.60
2019-03-28T03:38:02.704Z,14.90
2019-03-28T03:40:31.839Z,13.57
2019-03-28T03:43:01.719Z,13.30
2019-03-28T03:45:30.845Z,14.00
2019-03-28T03:47:59.993Z,14.97
2019-03-28T03:50:31.165Z,14.20
2019-03-28T03:53:00.325Z,14.57
2019-03-28T03:55:31.160Z,15.23
2019-03-28T03:58:14.412Z,15.30
2019-03-28T04:00:33.802Z,15.47
2019-03-28T04:03:04.456Z,15.00
2019-03-28T04:05:33.612Z,15.57
2019-03-28T04:08:04.521Z,15.80
2019-03-28T04:10:34.726Z,17.03
2019-03-28T04:13:05.459Z,16.13
2019-03-28T04:15:34.824Z,16.80
2019-03-28T04:18:05.500Z,17.57
2019-03-28T04:20:34.652Z,18.80
2019-03-28T04:23:04.287Z,17.93
2019-03-28T04:25:33.568Z,17.77
2019-03-28T04:28:02.705Z,18.17
2019-03-28T04:30:31.853Z,17.80
2019-03-28T04:33:00.977Z,20.53
2019-03-28T04:35:30.136Z,18.77
2019-03-28T04:38:00.227Z,21.07
2019-03-28T04:40:31.643Z,20.50
2019-03-28T04:43:02.637Z,19.97
2019-03-28T04:45:31.762Z,21.60
2019-03-28T04:48:01.588Z,21.73
2019-03-28T04:50:31.065Z,21.03
2019-03-28T04:53:00.208Z,21.93
2019-03-28T04:55:30.007Z,23.10
2019-03-28T04:58:00.124Z,21.60
2019-03-28T05:00:30.335Z,21.43
2019-03-28T05:02:59.492Z,22.57
2019-03-28T05:05:28.643Z,21.50
2019-03-28T05:07:57.817Z,20.53
2019-03-28T05:10:27.012Z,21.57
2019-03-28T05:12:56.596Z,21.63
2019-03-28T05:15:25.739Z,23.03
2019-03-28T05:17:54.863Z,23.17
2019-03-28T05:20:23.996Z,22.70
2019-03-28T05:22:53.144Z,24.20
2019-03-28T05:25:22.291Z,24.33
2019-03-28T05:27:51.531Z,23.60
2019-03-28T05:30:20.661Z,21.37
2019-03-28T05:32:49.812Z,20.37
2019-03-28T05:35:18.941Z,22.40
2019-03-28T05:37:48.220Z,24.40
2019-03-28T05:40:17.366Z,24.80
2019-03-28T05:42:46.527Z,24.00
2019-03-28T05:45:15.660Z,25.13
2019-03-28T05:47:44.811Z,23.83
2019-03-28T05:50:13.940Z,24.80
2019-03-28T05:52:43.108Z,23.60
2019-03-28T05:55:12.333Z,26.07
2019-03-28T05:57:41.512Z,24.07
2019-03-28T06:00:11.428Z,25.83
2019-03-28T06:02:40.669Z,24.07
2019-03-28T06:05:09.818Z,25.23
2019-03-28T06:07:39.004Z,26.60
2019-03-28T06:10:08.163Z,27.40
2019-03-28T06:12:37.293Z,27.87
2019-03-28T06:15:06.905Z,30.33
2019-03-28T06:17:36.090Z,24.20
2019-03-28T06:20:10.791Z,27.50
2019-03-28T06:22:39.944Z,25.13
2019-03-28T06:25:10.326Z,29.57
2019-03-28T06:27:39.475Z,29.47
2019-03-28T06:30:08.673Z,27.40
2019-03-28T06:32:43.078Z,29.80
2019-03-28T06:35:08.928Z,32.03
2019-03-28T06:37:38.047Z,30.73
2019-03-28T06:40:07.200Z,30.00
2019-03-28T06:42:36.332Z,27.57
2019-03-28T06:45:06.826Z,26.33
2019-03-28T06:47:35.975Z,23.87
2019-03-28T06:50:06.353Z,27.93
2019-03-28T06:52:36.472Z,26.90
2019-03-28T06:55:05.629Z,26.83
2019-03-28T06:57:34.748Z,26.20
2019-03-28T07:00:06.413Z,26.40
2019-03-28T07:02:35.550Z,27.10
2019-03-28T07:05:05.742Z,25.83
2019-03-28T07:07:34.880Z,26.63
2019-03-28T07:10:08.989Z,24.70
2019-03-28T07:12:38.122Z,22.03
2019-03-28T07:15:07.912Z,24.33
2019-03-28T07:17:37.056Z,23.57
2019-03-28T07:20:08.792Z,24.00
2019-03-28T07:22:38.008Z,22.30
2019-03-28T07:25:07.228Z,23.03
2019-03-28T07:27:36.355Z,21.80
2019-03-28T07:30:07.043Z,22.57
2019-03-28T07:32:37.165Z,20.60
2019-03-28T07:35:08.182Z,20.97
2019-03-28T07:37:38.452Z,20.00
2019-03-28T07:40:09.144Z,19.13
2019-03-28T07:42:38.272Z,21.87
2019-03-28T07:45:07.583Z,19.60
2019-03-28T07:47:36.789Z,18.50
2019-03-28T07:50:07.623Z,19.03
2019-03-28T07:52:36.756Z,18.90
2019-03-28T07:55:06.899Z,19.47
2019-03-28T07:57:36.072Z,18.13
2019-03-28T08:00:09.693Z,18.47
2019-03-28T08:02:38.800Z,17.53
2019-03-28T08:05:09.700Z,16.10
2019-03-28T08:07:45.080Z,15.40
2019-03-28T08:10:09.753Z,17.13
2019-03-28T08:12:38.889Z,15.43
2019-03-28T08:15:11.076Z,15.40
2019-03-28T08:17:40.300Z,15.57
2019-03-28T08:20:11.384Z,14.33
2019-03-28T08:22:40.532Z,13.43
2019-03-28T08:25:12.258Z,13.53
2019-03-28T08:27:42.244Z,14.40
2019-03-28T08:30:18.378Z,13.00
2019-03-28T08:32:42.242Z,13.53
2019-03-28T08:35:11.393Z,14.30
2019-03-28T08:37:40.544Z,12.70
2019-03-28T08:40:11.329Z,12.80
2019-03-28T08:42:40.460Z,13.93
2019-03-28T08:45:09.602Z,13.83
2019-03-28T08:47:38.748Z,13.40
2019-03-28T08:50:07.933Z,12.87
2019-03-28T08:52:37.160Z,13.00
2019-03-28T08:55:09.924Z,13.10
2019-03-28T08:57:38.105Z,13.00
2019-03-28T09:00:08.590Z,11.30
2019-03-28T09:02:37.732Z,12.40
2019-03-28T09:05:06.885Z,11.20
2019-03-28T09:07:36.028Z,12.57
2019-03-28T09:10:08.949Z,12.00
2019-03-28T09:12:39.267Z,12.37
2019-03-28T09:15:08.561Z,11.70
2019-03-28T09:17:37.697Z,12.17
2019-03-28T09:20:07.284Z,12.80
2019-03-28T09:22:38.979Z,12.00
2019-03-28T09:25:07.344Z,12.83
2019-03-28T09:27:36.752Z,13.07
2019-03-28T09:30:09.500Z,13.17
2019-03-28T09:32:38.643Z,13.00
2019-03-28T09:35:08.835Z,12.93
2019-03-28T09:37:37.981Z,12.80
2019-03-28T09:40:07.180Z,11.73
2019-03-28T09:42:36.323Z,12.23
2019-03-28T09:45:06.800Z,10.73
2019-03-28T09:47:35.940Z,9.23
2019-03-28T09:50:06.455Z,9.23
2019-03-28T09:52:35.589Z,9.27
2019-03-28T09:55:05.968Z,9.60
2019-03-28T09:57:35.097Z,8.80
2019-03-28T10:00:07.445Z,9.77
2019-03-28T10:02:36.576Z,9.87
2019-03-28T10:05:07.523Z,9.20
2019-03-28T10:07:38.527Z,9.10
2019-03-28T10:10:09.337Z,7.77
2019-03-28T10:12:38.671Z,8.40
2019-03-28T10:15:07.821Z,8.40
2019-03-28T10:17:36.946Z,8.97
2019-03-28T10:20:07.567Z,8.83
2019-03-28T10:25:18.033Z,9.20
2019-03-28T10:27:47.162Z,9.60
2019-03-28T10:30:16.366Z,8.77
2019-03-28T10:32:45.505Z,9.10
2019-03-28T10:35:19.279Z,8.57
2019-03-28T10:37:48.424Z,8.63
2019-03-28T10:40:17.564Z,8.90
2019-03-28T10:42:46.699Z,8.33
2019-03-28T10:45:29.500Z,8.47
2019-03-28T10:47:58.645Z,8.00
2019-03-28T10:50:40.759Z,7.70
2019-03-28T10:53:03.903Z,7.20
2019-03-28T10:55:33.040Z,7.13
2019-03-28T10:58:17.265Z,6.90
2019-03-28T11:00:34.772Z,6.43
2019-03-28T11:03:04.807Z,7.03
2019-03-28T11:05:34.085Z,6.30
2019-03-28T11:08:04.504Z,6.10
2019-03-28T11:10:33.625Z,6.70
2019-03-28T11:13:04.573Z,6.63
2019-03-28T11:15:39.886Z,7.30
2019-03-28T11:18:14.675Z,6.07
2019-03-28T11:20:43.812Z,5.77
2019-03-28T11:23:12.936Z,5.47
2019-03-28T11:25:42.489Z,4.73
2019-03-28T11:28:11.626Z,5.20
2019-03-28T11:30:40.767Z,5.43
2019-03-28T11:33:10.535Z,5.33
2019-03-28T11:35:39.667Z,5.30
2019-03-28T11:38:09.677Z,5.70
2019-03-28T11:40:41.272Z,5.73
2019-03-28T11:43:09.938Z,4.90
2019-03-28T11:45:39.156Z,4.90
2019-03-28T11:48:08.296Z,4.80
2019-03-28T11:50:37.416Z,6.03
2019-03-28T11:53:06.540Z,5.53
2019-03-28T11:55:35.686Z,4.97
2019-03-28T11:58:04.961Z,5.70
2019-03-28T12:00:34.113Z,5.50
2019-03-28T12:03:03.233Z,6.20
2019-03-28T12:05:32.373Z,6.00
2019-03-28T12:08:01.832Z,6.20
2019-03-28T12:10:30.976Z,5.83
2019-03-28T12:13:00.117Z,6.40
2019-03-28T12:15:31.021Z,6.20
2019-03-28T12:21:58.044Z,6.10
2019-03-28T12:24:27.189Z,7.70
2019-03-28T12:26:56.328Z,6.07
2019-03-28T12:29:25.453Z,7.00
2019-03-28T12:31:54.833Z,6.67
2019-03-28T12:34:23.986Z,6.27
2019-03-28T12:36:53.597Z,7.10
2019-03-28T12:39:22.738Z,6.90
2019-03-28T12:41:51.878Z,7.20
2019-03-28T12:44:21.007Z,7.40
2019-03-28T12:46:50.405Z,7.37
2019-03-28T12:49:21.184Z,7.30
2019-03-28T12:51:50.308Z,7.43
2019-03-28T12:54:19.449Z,7.80
2019-03-28T12:56:48.593Z,10.63
2019-03-28T12:59:17.737Z,6.27
2019-03-28T13:01:46.852Z,6.60
2019-03-28T13:04:16.783Z,6.53
2019-03-28T13:06:46.006Z,6.63
2019-03-28T13:09:15.121Z,6.00
2019-03-28T13:11:44.272Z,6.13
2019-03-28T13:14:13.408Z,5.60
2019-03-28T13:16:43.611Z,5.90
2019-03-28T13:19:12.745Z,5.73
2019-03-28T13:21:41.885Z,6.30
2019-03-28T13:24:11.072Z,6.20
2019-03-28T13:26:40.218Z,6.40
2019-03-28T13:29:10.382Z,6.07
2019-03-28T13:31:39.566Z,6.43
2019-03-28T13:34:08.708Z,6.40
2019-03-28T13:36:37.833Z,6.50
2019-03-28T13:39:07.393Z,6.17
2019-03-28T13:41:36.532Z,6.17
2019-03-28T13:44:05.659Z,6.03
2019-03-28T13:46:35.790Z,5.60
2019-03-28T13:49:05.593Z,6.17
2019-03-28T13:51:34.722Z,5.70
2019-03-28T13:54:04.101Z,5.43
2019-03-28T13:56:33.219Z,5.27
2019-03-28T13:59:02.345Z,5.10
2019-03-28T14:01:31.476Z,4.63
2019-03-28T14:04:01.283Z,5.00
2019-03-28T14:06:30.863Z,4.93
2019-03-28T14:09:00.029Z,4.83
2019-03-28T14:11:29.182Z,4.53
2019-03-28T14:13:59.355Z,3.83
2019-03-28T14:16:28.484Z,4.30
2019-03-28T14:18:57.618Z,4.37
2019-03-28T14:21:26.748Z,4.70
2019-03-28T14:23:56.459Z,4.40
2019-03-28T14:26:25.840Z,4.30
2019-03-28T14:28:55.640Z,4.30
2019-03-28T14:31:24.778Z,4.27
2019-03-28T14:33:54.493Z,4.70
2019-03-28T14:36:25.132Z,4.57
2019-03-28T14:38:54.489Z,4.33
2019-03-28T14:41:23.615Z,6.00
2019-03-28T14:43:53.364Z,6.40
2019-03-28T14:46:22.511Z,5.33
2019-03-28T14:48:52.154Z,4.60
2019-03-28T14:51:21.531Z,4.20
2019-03-28T14:53:50.757Z,4.00
2019-03-28T14:56:19.962Z,4.70
2019-03-28T14:58:49.085Z,4.40
2019-03-28T15:01:18.229Z,4.43
2019-03-28T15:03:47.348Z,3.83
2019-03-28T15:06:16.493Z,4.90
2019-03-28T15:08:45.623Z,3.60
2019-03-28T15:11:14.753Z,4.23
2019-03-28T15:13:43.873Z,4.67
2019-03-28T15:16:13.025Z,5.87
2019-03-28T15:18:42.145Z,3.77
2019-03-28T15:21:11.289Z,4.20
2019-03-28T15:23:40.425Z,4.03
2019-03-28T15:26:09.548Z,3.60
2019-03-28T15:28:39.257Z,4.03
2019-03-28T15:31:08.384Z,3.80
2019-03-28T15:33:39.726Z,3.70
2019-03-28T15:36:09.369Z,3.90
2019-03-28T15:38:39.826Z,5.97
2019-03-28T15:41:09.040Z,3.87
2019-03-28T15:43:38.184Z,4.13
2019-03-28T15:46:07.327Z,4.03
2019-03-28T15:48:37.723Z,4.10
2019-03-28T15:51:06.855Z,4.07
2019-03-28T15:53:35.976Z,3.90
2019-03-28T15:56:05.115Z,4.50
2019-03-28T15:58:34.250Z,4.53
2019-03-28T16:01:04.669Z,4.83
2019-03-28T16:03:34.371Z,4.20
2019-03-28T16:06:03.522Z,4.00
2019-03-28T16:08:45.761Z,4.20
2019-03-28T16:11:14.886Z,4.10
2019-03-28T16:13:44.008Z,4.67
2019-03-28T16:16:13.153Z,4.90
2019-03-28T16:18:42.272Z,4.33
2019-03-28T16:21:11.394Z,5.17
2019-03-28T16:23:41.199Z,4.50
2019-03-28T16:26:10.361Z,5.00
2019-03-28T16:28:40.712Z,5.40
2019-03-28T16:31:10.097Z,5.40
2019-03-28T16:33:39.803Z,4.83
2019-03-28T16:36:09.495Z,5.03
2019-03-28T16:38:38.645Z,4.70
2019-03-28T16:41:07.786Z,4.87
2019-03-28T16:43:36.927Z,5.20
2019-03-28T16:46:07.739Z,5.63
2019-03-28T16:48:36.909Z,5.33
2019-03-28T16:51:06.046Z,5.10
2019-03-28T16:53:35.795Z,5.00
2019-03-28T16:56:05.147Z,5.37
2019-03-28T16:58:34.280Z,5.27
2019-03-28T17:01:03.623Z,5.43
2019-03-28T17:03:33.784Z,5.73
2019-03-28T17:06:02.926Z,5.30
2019-03-28T17:08:32.056Z,6.13
2019-03-28T17:11:02.274Z,5.73
2019-03-28T17:13:31.395Z,5.83
2019-03-28T17:16:00.539Z,5.93
2019-03-28T17:18:29.670Z,5.77
2019-03-28T17:20:58.790Z,6.20
2019-03-28T17:23:28.120Z,5.90
2019-03-28T17:25:57.334Z,6.20
2019-03-28T17:28:26.469Z,7.60
2019-03-28T17:30:55.612Z,7.33
2019-03-28T17:33:24.739Z,6.17
2019-03-28T17:35:53.874Z,6.60
2019-03-28T17:38:23.012Z,6.63
2019-03-28T17:40:52.162Z,6.50
2019-03-28T17:43:21.280Z,6.53
2019-03-28T17:45:50.529Z,6.77
2019-03-28T17:48:19.730Z,7.30
2019-03-28T17:50:48.868Z,7.57
2019-03-28T17:53:18.015Z,7.60
2019-03-28T17:55:47.140Z,7.33
2019-03-28T17:58:16.538Z,7.53
2019-03-28T18:00:46.556Z,7.47
2019-03-28T18:03:30.260Z,6.97
2019-03-28T18:05:57.464Z,7.93
2019-03-28T18:08:19.049Z,8.57
2019-03-28T18:10:48.987Z,10.40
2019-03-28T18:13:18.173Z,10.33
2019-03-28T18:15:47.304Z,17.23
2019-03-28T18:18:16.443Z,12.07
2019-03-28T18:20:45.602Z,12.80
2019-03-28T18:23:14.722Z,13.10
2019-03-28T18:25:43.859Z,12.70
2019-03-28T18:28:13.008Z,11.07
2019-03-28T18:30:42.162Z,10.20
2019-03-28T18:33:12.287Z,10.70
2019-03-28T18:35:41.422Z,11.77
2019-03-28T18:38:10.922Z,11.30
2019-03-28T18:40:40.318Z,10.20
2019-03-28T18:43:09.476Z,9.67
2019-03-28T18:45:39.722Z,8.07
2019-03-28T18:48:09.491Z,8.17
2019-03-28T18:50:41.319Z,8.43
2019-03-28T18:53:12.135Z,8.60
2019-03-28T18:55:41.297Z,8.93
2019-03-28T18:58:10.433Z,9.77
2019-03-28T19:00:39.585Z,9.90
2019-03-28T19:03:09.026Z,10.03
2019-03-28T19:05:38.213Z,9.57
2019-03-28T19:08:07.630Z,11.20
2019-03-28T19:10:38.027Z,10.63
2019-03-28T19:13:07.304Z,10.40
2019-03-28T19:15:36.425Z,9.97
2019-03-28T19:18:05.559Z,9.80
2019-03-28T19:20:35.849Z,9.63
2019-03-28T19:23:07.227Z,9.60
2019-03-28T19:25:36.032Z,9.90
2019-03-28T19:28:07.643Z,9.77
2019-03-28T19:30:36.611Z,9.67
2019-03-28T19:33:06.992Z,9.83
2019-03-28T19:35:36.637Z,9.33
2019-03-28T19:38:08.819Z,9.83
2019-03-28T19:40:36.631Z,10.30
2019-03-28T19:43:19.880Z,9.93
2019-03-28T19:45:37.280Z,10.03
2019-03-28T19:48:06.400Z,9.93
2019-03-28T19:50:35.572Z,10.17
2019-03-28T19:53:04.766Z,9.73
2019-03-28T19:55:33.895Z,10.17
2019-03-28T19:58:04.860Z,10.53
2019-03-28T20:00:34.382Z,10.03
2019-03-28T20:03:03.897Z,10.77
2019-03-28T20:05:46.370Z,10.53
2019-03-28T20:08:14.971Z,11.53
2019-03-28T20:10:35.571Z,11.27
2019-03-28T20:13:05.370Z,10.30
2019-03-28T20:15:34.833Z,11.57
2019-03-28T20:18:03.977Z,11.43
2019-03-28T20:20:33.975Z,11.60
2019-03-28T20:23:03.117Z,11.57
2019-03-28T20:25:32.752Z,11.90
2019-03-28T20:28:02.094Z,11.23
2019-03-28T20:31:45.150Z,12.97
2019-03-28T20:34:14.965Z,12.70
2019-03-28T20:36:44.508Z,12.83
2019-03-28T20:39:14.187Z,12.00
2019-03-28T20:41:43.330Z,12.00
2019-03-28T20:44:12.532Z,11.30
2019-03-28T20:46:41.662Z,11.13
2019-03-28T20:49:10.779Z,11.03
2019-03-28T20:51:40.887Z,11.27
2019-03-28T20:54:10.576Z,10.87
2019-03-28T20:56:39.704Z,11.23
2019-03-28T20:59:08.845Z,11.77
2019-03-28T21:01:37.963Z,13.93
2019-03-28T21:04:07.207Z,13.57
2019-03-28T21:06:37.104Z,12.10
2019-03-28T21:09:06.812Z,12.83
2019-03-28T21:11:35.937Z,13.63
2019-03-28T21:14:05.067Z,14.63
2019-03-28T21:16:34.211Z,13.63
2019-03-28T21:19:03.344Z,14.17
2019-03-28T21:21:32.716Z,14.77
2019-03-28T21:24:01.855Z,14.00
2019-03-28T21:26:31.270Z,14.30
2019-03-28T21:29:00.392Z,13.73
2019-03-28T21:31:29.567Z,14.17
2019-03-28T21:33:58.692Z,14.50
2019-03-28T21:36:29.985Z,13.73
2019-03-28T21:38:58.715Z,13.70
2019-03-28T21:41:27.859Z,14.13
2019-03-28T21:43:57.556Z,13.57
2019-03-28T21:46:26.679Z,12.53
2019-03-28T21:48:55.818Z,12.13
2019-03-28T21:51:24.964Z,12.17
2019-03-28T21:53:54.643Z,11.33
2019-03-28T21:56:24.443Z,10.77
2019-03-28T21:58:53.549Z,10.43
2019-03-28T22:01:22.676Z,11.33
2019-03-28T22:03:51.850Z,11.00
2019-03-28T22:06:21.179Z,10.87
2019-03-28T22:08:50.310Z,12.30
2019-03-28T22:11:19.431Z,11.73
2019-03-28T22:13:48.581Z,12.50
2019-03-28T22:16:18.323Z,11.10
2019-03-28T22:18:47.458Z,10.57
2019-03-28T22:21:17.165Z,11.67
2019-03-28T22:23:47.560Z,11.60
2019-03-28T22:26:16.699Z,11.90
2019-03-28T22:28:46.795Z,12.10
2019-03-28T22:31:16.487Z,11.63
2019-03-28T22:33:45.627Z,12.10
2019-03-28T22:36:14.765Z,11.73
2019-03-28T22:38:44.472Z,11.70
2019-03-28T22:41:13.592Z,12.70
2019-03-28T22:43:42.742Z,12.30
2019-03-28T22:46:12.530Z,12.23
2019-03-28T22:48:44.299Z,13.13
2019-03-28T22:51:12.483Z,12.83
2019-03-28T22:53:42.595Z,12.47
2019-03-28T22:56:12.059Z,13.53
2019-03-28T22:58:41.191Z,13.67
2019-03-28T23:01:10.941Z,12.90
2019-03-28T23:03:40.447Z,14.13
2019-03-28T23:06:09.567Z,13.00
2019-03-28T23:08:38.695Z,12.60
2019-03-28T23:11:07.833Z,13.10
2019-03-28T23:13:36.968Z,12.47
